Time;durP1;ratioP1;P1;durP2;ratioP2;P2;SDS_P1;SDS_P2;PMS_P1;PMS_P2;Temp;Humidity;BMP_temperature;BMP_pressure;BME280_temperature;BME280_humidity;BME280_pressure;Samples;Min_cycle;Max_cycle;Signal;HPM_P1;HPM_P2
2023/03/04 00:00:11;;;;;;;44.97;25.30;;;1.40;99.90;;;;;;5020780;28;20289;-81
2023/03/04 00:02:42;;;;;;;44.65;22.58;;;1.40;99.90;;;;;;5023730;28;20240;-81
2023/03/04 00:05:08;;;;;;;34.92;19.45;;;1.40;99.90;;;;;;5031163;28;20205;-79
2023/03/04 00:07:35;;;;;;;29.65;20.77;;;1.50;99.90;;;;;;5028436;28;20262;-83
2023/03/04 00:10:03;;;;;;;32.03;19.30;;;1.50;99.90;;;;;;5033817;28;20253;-82
2023/03/04 00:12:30;;;;;;;31.90;17.77;;;1.50;99.90;;;;;;5023877;28;20261;-80
2023/03/04 00:14:57;;;;;;;33.05;18.83;;;1.60;99.90;;;;;;5033839;28;20496;-80
2023/03/04 00:17:24;;;;;;;31.15;19.45;;;1.40;99.90;;;;;;5036208;28;20567;-79
2023/03/04 00:19:51;;;;;;;36.45;21.08;;;1.40;99.90;;;;;;5040117;28;20209;-79
2023/03/04 00:22:18;;;;;;;29.80;17.30;;;1.50;99.90;;;;;;5038503;28;20221;-79
2023/03/04 00:24:45;;;;;;;26.38;17.10;;;1.60;99.90;;;;;;5026586;28;20243;-80
2023/03/04 00:27:12;;;;;;;26.02;17.08;;;1.60;99.90;;;;;;5033792;28;20259;-81
2023/03/04 00:29:39;;;;;;;22.88;14.13;;;1.60;99.90;;;;;;5023438;28;20210;-80
2023/03/04 00:32:09;;;;;;;34.25;16.98;;;1.60;99.90;;;;;;5032655;28;20403;-82
2023/03/04 00:34:36;;;;;;;23.83;15.55;;;1.60;99.90;;;;;;5022830;28;20275;-82
2023/03/04 00:37:03;;;;;;;24.42;15.57;;;1.60;99.90;;;;;;5027390;28;20321;-81
2023/03/04 00:39:30;;;;;;;33.97;17.83;;;1.50;99.90;;;;;;5029169;28;20243;-80
2023/03/04 00:41:57;;;;;;;25.80;16.27;;;1.60;99.90;;;;;;5033001;28;20209;-82
2023/03/04 00:44:24;;;;;;;29.92;16.02;;;1.60;99.90;;;;;;5029774;28;20207;-80
2023/03/04 00:46:51;;;;;;;26.95;15.68;;;1.60;99.90;;;;;;5033916;28;20220;-81
2023/03/04 00:49:17;;;;;;;23.23;15.38;;;1.60;99.90;;;;;;5039369;28;20209;-81
2023/03/04 00:51:45;;;;;;;24.15;15.25;;;1.50;99.90;;;;;;5034062;28;20279;-80
2023/03/04 00:54:13;;;;;;;25.50;14.80;;;1.50;99.90;;;;;;5027780;28;20214;-79
2023/03/04 00:56:40;;;;;;;26.10;14.75;;;1.60;99.90;;;;;;5031373;28;20253;-81
2023/03/04 00:59:07;;;;;;;26.35;14.85;;;1.60;99.90;;;;;;5028336;28;20207;-78
2023/03/04 01:01:34;;;;;;;28.05;14.60;;;1.60;99.90;;;;;;5029996;28;20304;-79
2023/03/04 01:04:01;;;;;;;22.70;12.15;;;1.60;99.90;;;;;;5029228;28;20213;-81
2023/03/04 01:06:29;;;;;;;24.73;14.38;;;1.60;99.90;;;;;;5027527;28;20213;-79
2023/03/04 01:08:55;;;;;;;25.52;14.63;;;1.60;99.90;;;;;;5036084;28;20262;-81
2023/03/04 01:11:23;;;;;;;20.75;13.10;;;1.60;99.90;;;;;;5022483;28;20215;-80
2023/03/04 01:13:49;;;;;;;23.58;12.60;;;1.60;99.90;;;;;;5032764;28;20519;-80
2023/03/04 01:16:16;;;;;;;24.83;13.68;;;1.60;99.90;;;;;;5026173;28;20280;-80
2023/03/04 01:18:44;;;;;;;25.88;14.10;;;1.60;99.90;;;;;;5031072;28;20206;-80
2023/03/04 01:21:11;;;;;;;28.92;16.55;;;1.60;99.90;;;;;;5027862;28;20469;-81
2023/03/04 01:23:38;;;;;;;22.92;14.13;;;1.60;99.90;;;;;;5027978;28;20211;-79
2023/03/04 01:26:05;;;;;;;26.20;15.05;;;1.60;99.90;;;;;;5026311;28;20214;-82
2023/03/04 01:28:35;;;;;;;34.08;15.43;;;1.60;99.90;;;;;;5018103;28;20214;-82
2023/03/04 01:31:03;;;;;;;22.55;15.55;;;1.60;99.90;;;;;;5031345;28;20213;-82
2023/03/04 01:33:30;;;;;;;21.17;12.05;;;1.60;99.90;;;;;;5021209;28;20443;-79
2023/03/04 01:35:57;;;;;;;20.98;12.93;;;1.60;99.90;;;;;;5032952;28;20206;-81
2023/03/04 01:38:24;;;;;;;27.05;13.13;;;1.60;99.90;;;;;;5032146;28;20222;-82
2023/03/04 01:40:51;;;;;;;26.33;15.45;;;1.70;99.90;;;;;;5032408;28;20197;-82
2023/03/04 01:43:22;;;;;;;24.48;14.27;;;1.70;99.90;;;;;;5021490;28;20207;-81
2023/03/04 01:45:53;;;;;;;27.02;15.05;;;1.70;99.90;;;;;;5028463;28;20557;-81
2023/03/04 01:48:35;;;;;;;31.30;15.73;;;1.80;99.90;;;;;;5032984;28;20241;-82
2023/03/04 01:51:05;;;;;;;31.50;16.70;;;1.70;99.90;;;;;;5023839;28;20297;-82
2023/03/04 01:53:32;;;;;;;31.58;19.10;;;1.70;99.90;;;;;;5027995;28;20262;-82
2023/03/04 01:56:20;;;;;;;32.53;19.45;;;1.70;99.90;;;;;;5034393;28;20436;-84
2023/03/04 01:59:10;;;;;;;27.92;16.65;;;1.80;99.90;;;;;;5023192;28;20198;-81
2023/03/04 02:01:38;;;;;;;36.10;20.60;;;1.80;99.90;;;;;;5022233;28;20199;-83
2023/03/04 02:04:08;;;;;;;34.25;19.27;;;1.80;99.90;;;;;;5034221;28;20198;-81
2023/03/04 02:06:37;;;;;;;36.33;20.63;;;1.80;99.90;;;;;;5039823;28;20214;-83
2023/03/04 02:09:05;;;;;;;33.83;19.55;;;1.90;99.90;;;;;;5039365;28;20229;-80
2023/03/04 02:11:34;;;;;;;31.45;19.15;;;1.80;99.90;;;;;;5032849;28;20186;-80
2023/03/04 02:14:02;;;;;;;32.63;20.88;;;1.80;99.90;;;;;;5027726;28;20206;-80
2023/03/04 02:16:30;;;;;;;21.70;14.88;;;1.90;99.90;;;;;;5024694;28;20226;-82
2023/03/04 02:18:58;;;;;;;28.67;15.88;;;1.90;99.90;;;;;;5024729;28;20210;-81
2023/03/04 02:21:30;;;;;;;30.55;18.38;;;1.90;99.90;;;;;;5021774;28;20750;-82
2023/03/04 02:24:28;;;;;;;28.25;18.98;;;1.80;99.90;;;;;;5012905;28;20504;-83
2023/03/04 02:26:54;;;;;;;23.45;14.68;;;1.80;99.90;;;;;;5024845;28;20245;-81
2023/03/04 02:29:22;;;;;;;24.83;15.13;;;1.80;99.90;;;;;;5018746;28;20216;-82
2023/03/04 02:31:51;;;;;;;23.45;14.35;;;1.80;99.90;;;;;;5021779;28;20245;-82
2023/03/04 02:34:26;;;;;;;28.55;15.68;;;1.90;99.90;;;;;;5027364;28;20211;-82
2023/03/04 02:36:55;;;;;;;28.55;13.70;;;1.90;99.90;;;;;;5031587;28;20208;-84
2023/03/04 02:39:34;;;;;;;24.05;15.18;;;1.90;99.90;;;;;;5027071;28;20210;-81
2023/03/04 02:42:03;;;;;;;23.10;12.77;;;1.80;99.90;;;;;;5024673;28;20199;-83
2023/03/04 02:44:33;;;;;;;22.33;14.13;;;1.90;99.90;;;;;;5026557;28;20206;-85
2023/03/04 02:47:02;;;;;;;27.75;14.30;;;1.90;99.90;;;;;;5021430;28;20544;-81
2023/03/04 02:49:31;;;;;;;23.95;15.65;;;1.80;99.90;;;;;;5024921;28;20719;-82
2023/03/04 02:52:13;;;;;;;22.50;14.75;;;1.80;99.90;;;;;;5022058;28;20207;-85
2023/03/04 02:54:42;;;;;;;20.27;13.38;;;1.80;99.90;;;;;;5013845;28;20253;-80
2023/03/04 02:57:11;;;;;;;26.75;14.18;;;1.80;99.90;;;;;;5026274;28;20222;-82
2023/03/04 02:59:40;;;;;;;18.40;12.38;;;1.90;99.90;;;;;;5032905;28;20253;-82
2023/03/04 03:02:08;;;;;;;26.10;14.95;;;1.90;99.90;;;;;;5031178;28;20217;-83
2023/03/04 03:04:37;;;;;;;17.77;13.20;;;1.90;99.90;;;;;;5028091;28;20212;-80
2023/03/04 03:07:04;;;;;;;22.83;14.07;;;1.90;99.90;;;;;;5033366;28;20233;-82
2023/03/04 03:09:31;;;;;;;22.20;14.82;;;1.80;99.90;;;;;;5028391;28;20410;-84
2023/03/04 03:11:58;;;;;;;26.90;15.98;;;1.80;99.90;;;;;;5027881;28;20609;-81
2023/03/04 03:14:25;;;;;;;22.63;14.85;;;1.90;99.90;;;;;;5022687;28;20214;-79
2023/03/04 03:16:52;;;;;;;22.55;14.60;;;1.90;99.90;;;;;;5028614;28;20209;-80
2023/03/04 03:19:19;;;;;;;19.15;14.18;;;1.90;99.90;;;;;;5024389;28;20439;-83
2023/03/04 03:21:46;;;;;;;22.77;13.10;;;1.90;99.90;;;;;;5021389;28;20221;-82
2023/03/04 03:24:12;;;;;;;25.55;14.52;;;1.90;99.90;;;;;;5027997;28;20257;-82
2023/03/04 03:26:40;;;;;;;24.73;13.60;;;1.90;99.90;;;;;;5018677;28;20550;-83
2023/03/04 03:29:06;;;;;;;22.67;15.27;;;1.90;99.90;;;;;;5031166;28;20388;-80
2023/03/04 03:31:33;;;;;;;21.70;15.10;;;1.90;99.90;;;;;;5023094;28;20264;-79
2023/03/04 03:34:00;;;;;;;23.02;15.32;;;1.90;99.90;;;;;;5028136;28;20508;-81
2023/03/04 03:36:29;;;;;;;25.80;14.70;;;2.00;99.90;;;;;;5024970;28;20447;-80
2023/03/04 03:38:57;;;;;;;26.63;15.15;;;1.80;99.90;;;;;;5019095;28;20210;-81
2023/03/04 03:41:24;;;;;;;20.80;13.07;;;1.90;99.90;;;;;;5021023;28;20214;-80
2023/03/04 03:43:51;;;;;;;21.33;14.43;;;2.00;99.90;;;;;;5023882;28;20222;-79
2023/03/04 03:46:18;;;;;;;23.42;15.95;;;2.00;99.90;;;;;;5022094;28;20212;-80
2023/03/04 03:48:44;;;;;;;24.25;15.60;;;1.90;99.90;;;;;;5025035;28;20214;-81
2023/03/04 03:51:12;;;;;;;22.13;14.65;;;1.90;99.90;;;;;;5022230;28;20261;-80
2023/03/04 03:53:39;;;;;;;21.90;15.90;;;1.90;99.90;;;;;;5027938;28;20485;-80
2023/03/04 03:56:06;;;;;;;26.45;15.63;;;2.00;99.90;;;;;;5017451;28;20214;-80
2023/03/04 03:58:33;;;;;;;21.95;14.90;;;2.00;99.90;;;;;;5032570;28;20269;-80
2023/03/04 04:01:00;;;;;;;26.73;15.52;;;2.00;99.90;;;;;;5021639;28;20238;-83
2023/03/04 04:03:28;;;;;;;25.27;14.27;;;2.00;99.90;;;;;;5020152;28;20215;-81
2023/03/04 04:05:55;;;;;;;23.38;15.40;;;2.00;99.90;;;;;;5034286;28;20203;-79
2023/03/04 04:08:22;;;;;;;24.65;15.68;;;2.00;99.90;;;;;;5019448;28;20238;-81
2023/03/04 04:10:49;;;;;;;24.73;13.55;;;2.10;99.90;;;;;;5022866;28;20772;-81
2023/03/04 04:13:16;;;;;;;26.15;17.02;;;2.10;99.90;;;;;;5017934;28;20239;-79
2023/03/04 04:15:43;;;;;;;26.98;16.77;;;2.10;99.90;;;;;;5019763;28;20202;-78
2023/03/04 04:18:09;;;;;;;29.02;16.40;;;2.10;99.90;;;;;;5019578;28;20248;-80
2023/03/04 04:20:36;;;;;;;25.88;16.40;;;2.10;99.90;;;;;;5019558;28;20468;-82
2023/03/04 04:23:03;;;;;;;24.17;15.95;;;2.10;99.90;;;;;;5026542;28;20218;-83
2023/03/04 04:25:31;;;;;;;21.90;14.27;;;2.10;99.90;;;;;;5017592;28;20282;-82
2023/03/04 04:27:58;;;;;;;22.60;12.45;;;2.20;99.90;;;;;;5020921;28;20250;-82
2023/03/04 04:30:25;;;;;;;22.48;14.70;;;2.10;99.90;;;;;;5016547;28;20217;-82
2023/03/04 04:32:52;;;;;;;24.23;14.90;;;2.10;99.90;;;;;;5027281;28;20254;-82
2023/03/04 04:35:19;;;;;;;21.25;12.77;;;2.10;99.90;;;;;;5027166;28;20202;-83
2023/03/04 04:37:47;;;;;;;20.70;13.52;;;2.20;99.90;;;;;;5023470;28;20215;-81
2023/03/04 04:40:13;;;;;;;27.27;14.75;;;2.20;99.90;;;;;;5020042;28;20207;-82
2023/03/04 04:42:40;;;;;;;25.60;13.45;;;2.20;99.90;;;;;;5023773;28;20214;-81
2023/03/04 04:45:08;;;;;;;20.88;14.18;;;2.20;99.90;;;;;;5015075;28;20250;-82
2023/03/04 04:47:35;;;;;;;22.08;14.02;;;2.20;99.90;;;;;;5028524;28;20223;-81
2023/03/04 04:50:02;;;;;;;24.98;15.13;;;2.20;99.90;;;;;;5029247;28;20478;-79
2023/03/04 04:52:29;;;;;;;17.92;13.13;;;2.20;99.90;;;;;;5024435;28;20238;-81
2023/03/04 04:54:56;;;;;;;22.15;14.98;;;2.30;99.90;;;;;;5030921;28;20217;-82
2023/03/04 04:57:23;;;;;;;20.77;14.15;;;2.20;99.90;;;;;;5033363;28;20474;-82
2023/03/04 04:59:50;;;;;;;21.35;14.73;;;2.20;99.90;;;;;;5023374;28;20206;-80
2023/03/04 05:02:17;;;;;;;24.10;17.15;;;2.20;99.90;;;;;;5035594;28;20209;-82
2023/03/04 05:04:44;;;;;;;24.85;15.55;;;2.20;99.90;;;;;;5028866;28;20204;-81
2023/03/04 05:07:11;;;;;;;23.88;16.13;;;2.20;99.90;;;;;;5018358;28;20262;-82
2023/03/04 05:09:37;;;;;;;28.75;15.55;;;2.20;99.90;;;;;;5019969;28;20266;-82
2023/03/04 05:12:04;;;;;;;22.27;14.75;;;2.20;99.90;;;;;;5030607;28;20214;-82
2023/03/04 05:14:31;;;;;;;20.75;13.52;;;2.20;99.90;;;;;;5032040;28;20233;-80
2023/03/04 05:16:58;;;;;;;20.33;12.82;;;2.20;99.90;;;;;;5024633;28;20214;-82
2023/03/04 05:19:25;;;;;;;20.48;13.25;;;2.30;99.90;;;;;;5021527;28;20234;-84
2023/03/04 05:21:52;;;;;;;18.92;12.63;;;2.30;99.90;;;;;;5025566;28;20427;-82
2023/03/04 05:24:20;;;;;;;27.10;16.05;;;2.30;99.90;;;;;;5018441;28;20265;-82
2023/03/04 05:26:47;;;;;;;19.75;13.98;;;2.30;99.90;;;;;;5018421;28;20206;-82
2023/03/04 05:29:13;;;;;;;22.15;13.20;;;2.40;99.90;;;;;;5032729;28;20237;-78
2023/03/04 05:31:40;;;;;;;17.27;13.55;;;2.30;99.90;;;;;;5038907;28;20210;-79
2023/03/04 05:34:07;;;;;;;27.40;14.25;;;2.30;99.90;;;;;;5036916;28;20230;-83
2023/03/04 05:36:34;;;;;;;21.90;15.70;;;2.40;99.90;;;;;;5038602;28;20280;-83
2023/03/04 05:39:01;;;;;;;22.42;13.55;;;2.50;99.90;;;;;;5032913;28;20211;-81
2023/03/04 05:41:28;;;;;;;23.15;14.60;;;2.50;99.90;;;;;;5027311;28;20266;-82
2023/03/04 05:43:55;;;;;;;19.45;13.48;;;2.40;99.90;;;;;;5031588;28;20254;-80
2023/03/04 05:46:24;;;;;;;17.85;14.43;;;2.40;99.90;;;;;;5034226;28;20252;-80
2023/03/04 05:48:52;;;;;;;24.33;15.32;;;2.40;99.90;;;;;;5028307;28;20561;-84
2023/03/04 05:51:20;;;;;;;23.40;15.32;;;2.40;99.90;;;;;;5026036;28;20272;-81
2023/03/04 05:53:48;;;;;;;18.90;14.20;;;2.40;99.90;;;;;;5014869;28;20234;-82
2023/03/04 05:56:18;;;;;;;24.00;14.95;;;2.50;99.90;;;;;;5029741;28;20216;-81
2023/03/04 05:58:46;;;;;;;25.10;14.43;;;2.50;99.90;;;;;;5023696;28;20712;-83
2023/03/04 06:01:13;;;;;;;24.08;15.32;;;2.50;99.90;;;;;;5016799;28;20547;-82
2023/03/04 06:03:42;;;;;;;25.38;15.40;;;2.50;99.90;;;;;;5020942;28;20214;-85
2023/03/04 06:06:09;;;;;;;21.60;14.38;;;2.50;99.90;;;;;;5021242;28;20211;-84
2023/03/04 06:08:36;;;;;;;26.05;17.15;;;2.60;99.90;;;;;;5023925;28;20211;-81
2023/03/04 06:11:04;;;;;;;28.63;16.67;;;2.60;99.90;;;;;;5028989;28;20221;-82
2023/03/04 06:13:31;;;;;;;29.80;17.83;;;2.60;99.90;;;;;;5021765;28;20239;-83
2023/03/04 06:15:59;;;;;;;26.75;17.60;;;2.60;99.90;;;;;;5024332;28;20511;-83
2023/03/04 06:18:27;;;;;;;28.27;14.60;;;2.60;99.90;;;;;;5020708;28;20222;-79
2023/03/04 06:20:58;;;;;;;23.63;16.30;;;2.70;99.90;;;;;;5018334;28;20500;-82
2023/03/04 06:23:25;;;;;;;23.75;15.98;;;2.70;99.90;;;;;;5025135;28;20250;-82
2023/03/04 06:25:57;;;;;;;33.60;17.90;;;2.70;99.90;;;;;;5019426;28;20276;-81
2023/03/04 06:28:24;;;;;;;36.95;19.10;;;2.70;99.90;;;;;;5014093;28;20204;-81
2023/03/04 06:30:52;;;;;;;27.50;15.85;;;2.70;99.90;;;;;;5017422;28;20504;-80
2023/03/04 06:33:20;;;;;;;22.92;16.33;;;2.70;99.90;;;;;;5014460;28;20278;-80
2023/03/04 06:35:47;;;;;;;24.27;15.82;;;2.80;99.90;;;;;;5025898;28;20211;-81
2023/03/04 06:38:14;;;;;;;28.30;18.38;;;2.80;99.90;;;;;;5024468;28;20196;-79
2023/03/04 06:40:41;;;;;;;25.35;16.63;;;2.80;99.90;;;;;;5030145;28;20184;-80
2023/03/04 06:43:08;;;;;;;24.23;17.27;;;2.80;99.90;;;;;;5026670;28;20445;-82
2023/03/04 06:45:37;;;;;;;22.00;16.35;;;2.80;99.90;;;;;;5021430;28;20203;-82
2023/03/04 06:48:04;;;;;;;25.23;17.75;;;2.80;99.90;;;;;;5022604;28;20207;-82
2023/03/04 06:50:31;;;;;;;25.23;15.57;;;2.80;99.90;;;;;;5029517;28;20219;-79
2023/03/04 06:52:58;;;;;;;20.30;15.90;;;2.80;99.90;;;;;;5022795;28;20219;-79
2023/03/04 06:55:24;;;;;;;18.20;14.80;;;2.70;99.90;;;;;;5022886;28;20202;-83
2023/03/04 06:57:53;;;;;;;21.42;15.85;;;2.90;99.90;;;;;;5014445;28;20227;-81
2023/03/04 07:00:22;;;;;;;22.92;15.32;;;2.80;99.90;;;;;;5012627;28;20200;-83
2023/03/04 07:02:50;;;;;;;25.77;15.48;;;2.80;99.90;;;;;;5008700;28;20211;-80
2023/03/04 07:05:20;;;;;;;17.35;13.30;;;2.80;99.90;;;;;;5007953;28;20211;-80
2023/03/04 07:07:48;;;;;;;25.17;14.25;;;2.90;99.90;;;;;;5012589;28;20266;-81
2023/03/04 07:10:16;;;;;;;23.15;15.23;;;2.90;99.90;;;;;;5006501;28;20208;-82
2023/03/04 07:12:43;;;;;;;22.00;13.40;;;3.00;99.90;;;;;;5006143;28;20217;-80
2023/03/04 07:15:12;;;;;;;24.58;15.07;;;3.00;99.90;;;;;;5003653;28;20375;-80
2023/03/04 07:17:40;;;;;;;22.25;13.88;;;3.10;99.90;;;;;;5014359;28;20282;-83
2023/03/04 07:20:07;;;;;;;18.85;13.05;;;3.10;99.90;;;;;;5008490;28;20251;-84
2023/03/04 07:22:34;;;;;;;18.63;12.73;;;3.00;99.90;;;;;;5008112;28;20550;-83
2023/03/04 07:25:01;;;;;;;27.45;13.30;;;3.00;99.90;;;;;;5013980;28;20204;-81
2023/03/04 07:27:29;;;;;;;18.50;11.68;;;3.10;99.90;;;;;;5005287;28;20270;-80
2023/03/04 07:29:57;;;;;;;21.40;12.38;;;3.10;99.90;;;;;;5001430;28;20208;-80
2023/03/04 07:32:23;;;;;;;17.58;13.27;;;3.10;99.90;;;;;;5009994;28;20216;-86
2023/03/04 07:34:51;;;;;;;21.55;13.40;;;3.10;99.90;;;;;;5008696;28;20275;-81
2023/03/04 07:37:18;;;;;;;20.75;11.50;;;3.10;99.90;;;;;;5012718;28;20256;-79
2023/03/04 07:39:45;;;;;;;26.48;13.90;;;3.10;99.90;;;;;;5011144;28;20265;-80
2023/03/04 07:42:12;;;;;;;19.15;12.30;;;3.20;99.90;;;;;;5007147;28;20291;-79
2023/03/04 07:44:39;;;;;;;19.45;12.50;;;3.20;99.90;;;;;;5002571;28;20505;-80
2023/03/04 07:47:06;;;;;;;20.58;13.27;;;3.20;99.90;;;;;;5009156;28;20215;-82
2023/03/04 07:49:33;;;;;;;18.55;12.23;;;3.20;99.90;;;;;;5001876;28;20203;-83
2023/03/04 07:52:03;;;;;;;26.00;13.05;;;3.30;99.90;;;;;;5004858;28;20204;-83
2023/03/04 07:54:31;;;;;;;19.08;12.45;;;3.20;99.90;;;;;;5012416;28;20236;-81
2023/03/04 07:56:58;;;;;;;25.80;13.35;;;3.20;99.90;;;;;;5011799;28;20216;-82
2023/03/04 07:59:25;;;;;;;19.95;12.07;;;3.20;99.90;;;;;;5010649;28;20220;-80
2023/03/04 08:01:52;;;;;;;20.25;13.35;;;3.20;99.90;;;;;;5009094;28;20227;-82
2023/03/04 08:04:18;;;;;;;23.85;13.43;;;3.30;99.90;;;;;;5010483;28;20224;-80
2023/03/04 08:06:47;;;;;;;17.65;12.35;;;3.30;99.90;;;;;;5004374;28;20247;-82
2023/03/04 08:09:18;;;;;;;20.77;13.23;;;3.30;99.90;;;;;;5008333;28;20208;-80
2023/03/04 08:11:45;;;;;;;18.10;13.68;;;3.40;99.90;;;;;;5004616;28;20725;-80
2023/03/04 08:14:15;;;;;;;23.10;14.50;;;3.50;99.90;;;;;;5012091;28;20232;-83
2023/03/04 08:16:42;;;;;;;28.00;16.67;;;3.40;99.90;;;;;;5010323;28;20761;-80
2023/03/04 08:19:10;;;;;;;20.77;14.00;;;3.40;99.90;;;;;;5004757;28;20342;-80
2023/03/04 08:21:38;;;;;;;32.90;15.38;;;3.40;99.90;;;;;;5010823;28;20207;-81
2023/03/04 08:24:07;;;;;;;23.23;16.05;;;3.30;99.90;;;;;;5006474;28;20236;-85
2023/03/04 08:26:40;;;;;;;26.15;18.17;;;3.30;99.90;;;;;;5013241;28;20212;-80
2023/03/04 08:29:10;;;;;;;23.08;14.70;;;3.40;99.90;;;;;;5009302;28;20195;-83
2023/03/04 08:31:38;;;;;;;22.48;15.35;;;3.40;99.90;;;;;;5011227;28;20212;-82
2023/03/04 08:34:06;;;;;;;25.98;15.48;;;3.50;99.90;;;;;;5004268;28;20236;-83
2023/03/04 08:36:33;;;;;;;16.02;12.85;;;3.50;99.90;;;;;;5012071;28;20252;-82
2023/03/04 08:39:00;;;;;;;20.65;15.18;;;3.50;99.90;;;;;;5016151;28;20201;-81
2023/03/04 08:41:30;;;;;;;16.60;10.82;;;3.70;99.90;;;;;;5009892;28;20544;-80
2023/03/04 08:44:00;;;;;;;16.50;12.05;;;3.90;99.90;;;;;;5019101;28;20271;-81
2023/03/04 08:46:27;;;;;;;19.70;11.52;;;4.30;99.90;;;;;;5015283;28;20216;-82
2023/03/04 08:48:54;;;;;;;23.10;11.38;;;4.30;99.90;;;;;;5015659;28;20802;-82
2023/03/04 08:51:21;;;;;;;13.88;9.68;;;4.40;99.90;;;;;;5006776;28;20229;-81
2023/03/04 08:53:48;;;;;;;14.68;10.00;;;4.50;99.90;;;;;;5010310;28;20233;-82
2023/03/04 08:56:16;;;;;;;14.63;10.20;;;4.50;99.90;;;;;;5010294;28;20216;-80
2023/03/04 08:58:44;;;;;;;14.63;9.63;;;4.50;99.90;;;;;;5012188;28;20208;-81
2023/03/04 09:01:13;;;;;;;12.07;8.07;;;4.50;99.90;;;;;;5007778;28;20267;-81
2023/03/04 09:03:41;;;;;;;13.45;6.97;;;4.30;99.90;;;;;;5027217;28;20216;-80
2023/03/04 09:06:11;;;;;;;12.38;9.25;;;4.40;99.90;;;;;;5010138;28;20228;-81
2023/03/04 09:08:37;;;;;;;11.32;8.80;;;4.50;99.90;;;;;;5014917;28;20263;-79
2023/03/04 09:11:05;;;;;;;12.07;8.20;;;4.50;99.90;;;;;;5002947;28;20723;-82
2023/03/04 09:13:36;;;;;;;14.90;9.07;;;4.50;99.90;;;;;;5011481;28;20738;-82
2023/03/04 09:16:10;;;;;;;13.15;8.95;;;4.50;99.90;;;;;;5004039;28;20403;-83
2023/03/04 09:18:38;;;;;;;15.30;9.70;;;4.40;99.90;;;;;;5024406;28;20267;-81
2023/03/04 09:21:07;;;;;;;14.32;9.10;;;4.60;99.90;;;;;;5008173;28;20316;-84
2023/03/04 09:23:34;;;;;;;17.33;8.38;;;4.50;99.90;;;;;;5014235;28;20267;-80
2023/03/04 09:26:20;;;;;;;17.50;9.52;;;4.60;99.90;;;;;;5009927;28;20210;-81
2023/03/04 09:28:52;;;;;;;12.50;9.25;;;4.70;99.90;;;;;;5020178;28;20208;-81
2023/03/04 09:31:19;;;;;;;13.70;8.73;;;4.80;99.90;;;;;;5013053;28;20201;-82
2023/03/04 09:33:46;;;;;;;11.73;8.02;;;4.70;99.90;;;;;;5017870;28;20211;-81
2023/03/04 09:36:14;;;;;;;12.15;7.90;;;4.70;99.90;;;;;;5016240;28;20237;-81
2023/03/04 09:38:42;;;;;;;10.25;7.75;;;4.60;99.90;;;;;;5017547;28;20640;-80
2023/03/04 09:41:20;;;;;;;14.30;9.35;;;4.70;99.90;;;;;;5012275;28;20208;-84
2023/03/04 09:43:49;;;;;;;15.80;8.38;;;4.70;99.90;;;;;;5016110;28;20204;-82
2023/03/04 09:46:37;;;;;;;11.68;7.47;;;4.60;99.90;;;;;;5011006;28;20213;-82
2023/03/04 09:49:04;;;;;;;11.02;8.55;;;4.70;99.90;;;;;;5009438;28;20529;-82
2023/03/04 09:51:51;;;;;;;15.70;8.60;;;4.70;99.90;;;;;;5015830;28;20241;-83
2023/03/04 09:54:49;;;;;;;15.40;7.57;;;4.90;99.90;;;;;;5012228;28;20525;-79
2023/03/04 09:57:29;;;;;;;35.10;21.55;;;4.90;99.90;;;;;;5009724;28;20215;-83
2023/03/04 10:00:11;;;;;;;10.82;7.70;;;5.10;99.90;;;;;;5006698;28;20213;-81
2023/03/04 10:03:10;;;;;;;14.07;8.68;;;5.10;99.90;;;;;;5012459;28;20658;-82
2023/03/04 10:06:16;;;;;;;10.13;6.57;;;5.00;99.90;;;;;;5013088;28;20236;-82
2023/03/04 10:08:51;;;;;;;15.95;10.55;;;5.10;99.90;;;;;;5012067;28;20251;-80
2023/03/04 10:11:24;;;;;;;15.93;9.60;;;5.30;99.90;;;;;;5012846;28;20217;-82
2023/03/04 10:14:21;;;;;;;9.20;7.68;;;5.40;99.90;;;;;;5014808;28;20204;-80
2023/03/04 10:16:55;;;;;;;13.80;8.13;;;5.50;99.90;;;;;;5031266;28;20233;-81
2023/03/04 10:19:44;;;;;;;9.75;8.07;;;5.60;99.90;;;;;;5015612;28;20501;-82
2023/03/04 10:22:41;;;;;;;11.02;6.93;;;5.70;99.90;;;;;;5007060;28;20410;-83
2023/03/04 10:25:25;;;;;;;15.55;7.65;;;5.70;99.90;;;;;;5007993;28;20429;-82
2023/03/04 10:27:57;;;;;;;11.65;7.57;;;5.60;99.90;;;;;;5014418;28;20409;-80
2023/03/04 10:30:48;;;;;;;11.70;8.25;;;5.50;99.90;;;;;;5008053;28;20245;-84
2023/03/04 10:33:20;;;;;;;10.98;7.15;;;5.30;99.90;;;;;;4987008;28;20209;-82
2023/03/04 10:36:16;;;;;;;14.90;9.80;;;5.40;99.90;;;;;;5012113;28;20308;-80
2023/03/04 10:38:44;;;;;;;10.13;6.53;;;5.60;99.90;;;;;;5001489;28;20209;-81
2023/03/04 10:41:21;;;;;;;14.00;9.45;;;5.70;99.90;;;;;;5009432;28;20232;-80
2023/03/04 10:44:16;;;;;;;13.32;9.15;;;5.60;99.90;;;;;;5013375;28;20208;-79
2023/03/04 10:46:46;;;;;;;9.82;7.60;;;5.50;99.90;;;;;;5004454;28;20197;-82
2023/03/04 10:49:15;;;;;;;15.65;8.57;;;5.60;99.90;;;;;;5006031;28;20509;-79
2023/03/04 10:52:05;;;;;;;16.10;8.18;;;5.70;99.90;;;;;;5012878;28;20228;-82
2023/03/04 10:54:47;;;;;;;11.15;7.38;;;5.70;99.90;;;;;;5010857;28;20233;-82
2023/03/04 10:57:31;;;;;;;13.23;9.02;;;5.70;99.90;;;;;;5004827;28;20501;-81
2023/03/04 11:00:01;;;;;;;14.93;7.40;;;6.20;99.90;;;;;;5007698;28;20336;-82
2023/03/04 11:02:29;;;;;;;8.57;6.80;;;6.40;99.90;;;;;;5011314;28;20209;-81
2023/03/04 11:05:06;;;;;;;14.05;7.43;;;6.30;99.90;;;;;;5029584;28;20374;-80
2023/03/04 11:07:39;;;;;;;9.52;6.80;;;6.20;99.90;;;;;;5017410;28;20564;-81
2023/03/04 11:10:25;;;;;;;7.40;6.07;;;6.10;99.90;;;;;;5031580;28;20189;-81
2023/03/04 11:13:11;;;;;;;8.88;6.65;;;6.30;99.90;;;;;;5034175;28;20186;-81
2023/03/04 11:15:55;;;;;;;8.98;6.75;;;6.40;99.90;;;;;;5035233;28;20251;-80
2023/03/04 11:18:52;;;;;;;9.13;7.00;;;6.60;99.90;;;;;;5021190;28;20236;-81
2023/03/04 11:21:23;;;;;;;11.55;6.35;;;6.80;99.90;;;;;;5008345;28;20206;-80
2023/03/04 11:23:57;;;;;;;8.05;6.45;;;6.50;99.90;;;;;;5008552;28;20291;-81
2023/03/04 11:26:32;;;;;;;10.02;5.45;;;6.30;99.90;;;;;;5017010;28;20791;-82
2023/03/04 11:29:07;;;;;;;7.32;5.78;;;6.20;99.90;;;;;;5013975;28;20554;-81
2023/03/04 11:32:10;;;;;;;8.05;6.30;;;5.80;99.90;;;;;;5011464;28;20259;-79
2023/03/04 11:34:50;;;;;;;13.43;8.38;;;5.90;99.90;;;;;;5010748;28;20218;-81
2023/03/04 11:37:35;;;;;;;10.57;7.03;;;5.90;99.90;;;;;;5011609;28;20213;-81
2023/03/04 11:40:15;;;;;;;10.60;7.20;;;5.90;99.90;;;;;;5014765;28;20249;-81
2023/03/04 11:42:48;;;;;;;7.57;6.43;;;6.00;99.90;;;;;;5011618;28;20231;-81
2023/03/04 11:45:21;;;;;;;9.35;6.30;;;6.20;99.90;;;;;;5024281;28;20209;-79
2023/03/04 11:48:13;;;;;;;8.82;7.43;;;6.20;99.90;;;;;;5020588;28;20219;-82
2023/03/04 11:50:55;;;;;;;7.85;6.20;;;6.30;99.90;;;;;;5025688;28;20542;-82
2023/03/04 11:53:37;;;;;;;8.02;6.10;;;6.50;99.90;;;;;;5032495;28;20515;-82
2023/03/04 11:56:31;;;;;;;7.10;5.43;;;6.50;99.90;;;;;;5029651;28;20229;-83
2023/03/04 11:59:39;;;;;;;8.75;4.70;;;6.30;99.90;;;;;;5025516;28;20210;-83
2023/03/04 12:02:22;;;;;;;8.35;7.20;;;6.40;99.90;;;;;;5025790;28;20219;-80
2023/03/04 12:05:05;;;;;;;7.75;5.72;;;6.40;99.90;;;;;;5020719;28;20441;-80
2023/03/04 12:08:09;;;;;;;7.90;6.57;;;6.20;99.90;;;;;;5021355;28;20208;-80
2023/03/04 12:10:57;;;;;;;9.45;5.95;;;6.20;99.90;;;;;;5019364;28;20297;-81
2023/03/04 12:13:37;;;;;;;7.55;6.25;;;6.00;99.90;;;;;;5023265;28;20204;-80
2023/03/04 12:16:13;;;;;;;10.75;6.40;;;5.90;99.90;;;;;;5018629;28;20235;-81
2023/03/04 12:18:52;;;;;;;9.05;5.38;;;5.90;99.90;;;;;;5018115;28;20223;-81
2023/03/04 12:21:42;;;;;;;7.28;5.40;;;5.90;99.90;;;;;;5020070;28;20436;-81
2023/03/04 12:24:39;;;;;;;8.60;6.15;;;6.20;99.90;;;;;;5017587;28;20597;-80
2023/03/04 12:27:17;;;;;;;5.32;4.82;;;6.60;99.90;;;;;;5022295;28;20200;-81
2023/03/04 12:29:55;;;;;;;7.90;6.40;;;6.90;99.90;;;;;;5012252;28;20201;-80
2023/03/04 12:32:59;;;;;;;7.97;5.50;;;6.90;99.90;;;;;;5010155;28;20252;-82
2023/03/04 12:35:47;;;;;;;9.95;7.15;;;6.70;99.90;;;;;;5015940;28;20556;-82
2023/03/04 12:38:20;;;;;;;6.65;5.93;;;6.60;99.90;;;;;;5011860;28;20211;-82
2023/03/04 12:41:08;;;;;;;9.77;7.18;;;6.70;99.90;;;;;;5010597;28;20205;-79
2023/03/04 12:43:57;;;;;;;8.20;6.15;;;6.80;99.90;;;;;;5005233;28;20255;-80
2023/03/04 12:47:07;;;;;;;19.20;7.40;;;7.00;99.90;;;;;;5005822;28;20261;-81
2023/03/04 12:49:59;;;;;;;8.35;6.68;;;7.10;99.90;;;;;;5008326;28;20255;-82
2023/03/04 12:53:03;;;;;;;6.40;5.63;;;6.90;99.90;;;;;;5016103;28;20214;-80
2023/03/04 12:55:36;;;;;;;10.68;6.90;;;6.70;99.90;;;;;;5007204;28;20229;-81
2023/03/04 12:58:08;;;;;;;7.75;5.88;;;6.50;99.90;;;;;;5010492;28;20248;-81
2023/03/04 13:01:07;;;;;;;6.32;5.53;;;6.30;99.90;;;;;;5008123;28;20218;-81
2023/03/04 13:03:36;;;;;;;9.63;6.60;;;6.20;99.90;;;;;;5008638;28;20333;-81